sensor_id;sensor_type;location;lat;lon;timestamp;temperature;humidity
8105;DHT22;4095;48.942;9.104;2023-09-18T00:00:04;21.30;99.90
8105;DHT22;4095;48.942;9.104;2023-09-18T00:02:33;21.30;99.90
8105;DHT22;4095;48.942;9.104;2023-09-18T00:04:59;21.20;99.90
8105;DHT22;4095;48.942;9.104;2023-09-18T00:07:25;21.20;99.90
8105;DHT22;4095;48.942;9.104;2023-09-18T00:09:50;21.20;99.90
8105;DHT22;4095;48.942;9.104;2023-09-18T00:12:16;21.20;99.90
8105;DHT22;4095;48.942;9.104;2023-09-18T00:14:42;21.20;99.90
8105;DHT22;4095;48.942;9.104;2023-09-18T00:17:07;21.20;99.90
8105;DHT22;4095;48.942;9.104;2023-09-18T00:19:33;21.20;99.90
8105;DHT22;4095;48.942;9.104;2023-09-18T00:21:59;21.20;99.90
8105;DHT22;4095;48.942;9.104;2023-09-18T00:24:27;21.20;99.90
8105;DHT22;4095;48.942;9.104;2023-09-18T00:26:52;21.20;99.90
8105;DHT22;4095;48.942;9.104;2023-09-18T00:29:18;21.30;99.90
8105;DHT22;4095;48.942;9.104;2023-09-18T00:31:44;21.30;99.90
8105;DHT22;4095;48.942;9.104;2023-09-18T00:34:09;21.30;99.90
8105;DHT22;4095;48.942;9.104;2023-09-18T00:36:35;21.30;99.90
8105;DHT22;4095;48.942;9.104;2023-09-18T00:39:01;21.30;99.90
8105;DHT22;4095;48.942;9.104;2023-09-18T00:41:27;21.30;99.90
8105;DHT22;4095;48.942;9.104;2023-09-18T00:43:52;21.30;99.90
8105;DHT22;4095;48.942;9.104;2023-09-18T00:46:19;21.30;99.90
8105;DHT22;4095;48.942;9.104;2023-09-18T00:48:45;21.30;99.90
8105;DHT22;4095;48.942;9.104;2023-09-18T00:51:12;21.30;99.90
8105;DHT22;4095;48.942;9.104;2023-09-18T00:53:41;21.30;99.90
8105;DHT22;4095;48.942;9.104;2023-09-18T00:56:09;21.30;99.90
8105;DHT22;4095;48.942;9.104;2023-09-18T00:58:35;21.30;99.90
8105;DHT22;4095;48.942;9.104;2023-09-18T01:01:01;21.30;99.90
8105;DHT22;4095;48.942;9.104;2023-09-18T01:03:26;21.30;99.90
8105;DHT22;4095;48.942;9.104;2023-09-18T01:05:53;21.20;99.90
8105;DHT22;4095;48.942;9.104;2023-09-18T01:08:19;21.30;99.90
8105;DHT22;4095;48.942;9.104;2023-09-18T01:11:03;21.30;99.90
8105;DHT22;4095;48.942;9.104;2023-09-18T01:13:37;21.30;99.90
8105;DHT22;4095;48.942;9.104;2023-09-18T01:16:27;21.30;99.90
8105;DHT22;4095;48.942;9.104;2023-09-18T01:18:54;21.30;99.90
8105;DHT22;4095;48.942;9.104;2023-09-18T01:21:20;21.30;99.90
8105;DHT22;4095;48.942;9.104;2023-09-18T01:23:46;21.40;99.90
8105;DHT22;4095;48.942;9.104;2023-09-18T01:26:12;21.40;99.90
8105;DHT22;4095;48.942;9.104;2023-09-18T01:28:37;21.40;99.90
8105;DHT22;4095;48.942;9.104;2023-09-18T01:31:03;21.50;99.90
8105;DHT22;4095;48.942;9.104;2023-09-18T01:33:29;21.40;99.90
8105;DHT22;4095;48.942;9.104;2023-09-18T01:35:56;21.50;99.90
8105;DHT22;4095;48.942;9.104;2023-09-18T01:38:23;21.50;99.90
8105;DHT22;4095;48.942;9.104;2023-09-18T01:40:51;21.50;99.90
8105;DHT22;4095;48.942;9.104;2023-09-18T01:43:19;21.50;99.90
8105;DHT22;4095;48.942;9.104;2023-09-18T01:45:45;21.60;99.90
8105;DHT22;4095;48.942;9.104;2023-09-18T01:48:11;21.60;99.90
8105;DHT22;4095;48.942;9.104;2023-09-18T01:50:37;21.60;99.90
8105;DHT22;4095;48.942;9.104;2023-09-18T01:53:03;21.70;99.90
8105;DHT22;4095;48.942;9.104;2023-09-18T01:55:29;21.70;99.90
8105;DHT22;4095;48.942;9.104;2023-09-18T01:57:55;21.70;99.90
8105;DHT22;4095;48.942;9.104;2023-09-18T02:00:21;21.70;99.90
8105;DHT22;4095;48.942;9.104;2023-09-18T02:02:47;21.80;99.90
8105;DHT22;4095;48.942;9.104;2023-09-18T02:05:12;21.70;99.90
8105;DHT22;4095;48.942;9.104;2023-09-18T02:07:38;21.80;99.90
8105;DHT22;4095;48.942;9.104;2023-09-18T02:10:04;21.80;99.90
8105;DHT22;4095;48.942;9.104;2023-09-18T02:12:30;21.90;99.90
8105;DHT22;4095;48.942;9.104;2023-09-18T02:14:55;22.00;99.90
8105;DHT22;4095;48.942;9.104;2023-09-18T02:17:23;22.00;99.90
8105;DHT22;4095;48.942;9.104;2023-09-18T02:19:49;22.00;99.90
8105;DHT22;4095;48.942;9.104;2023-09-18T02:22:15;22.00;99.90
8105;DHT22;4095;48.942;9.104;2023-09-18T02:24:40;22.00;99.90
8105;DHT22;4095;48.942;9.104;2023-09-18T02:27:06;21.90;99.90
8105;DHT22;4095;48.942;9.104;2023-09-18T02:29:32;21.90;99.90
8105;DHT22;4095;48.942;9.104;2023-09-18T02:31:58;21.90;99.90
8105;DHT22;4095;48.942;9.104;2023-09-18T02:34:23;21.90;99.90
8105;DHT22;4095;48.942;9.104;2023-09-18T02:36:49;21.90;99.90
8105;DHT22;4095;48.942;9.104;2023-09-18T02:39:14;21.90;99.90
8105;DHT22;4095;48.942;9.104;2023-09-18T02:41:40;21.90;99.90
8105;DHT22;4095;48.942;9.104;2023-09-18T02:44:06;21.90;99.90
8105;DHT22;4095;48.942;9.104;2023-09-18T02:46:31;21.90;99.90
8105;DHT22;4095;48.942;9.104;2023-09-18T02:48:57;21.80;99.90
8105;DHT22;4095;48.942;9.104;2023-09-18T02:51:22;21.80;99.90
8105;DHT22;4095;48.942;9.104;2023-09-18T02:53:48;21.80;99.90
8105;DHT22;4095;48.942;9.104;2023-09-18T02:56:14;21.80;99.90
8105;DHT22;4095;48.942;9.104;2023-09-18T02:58:40;21.70;99.90
8105;DHT22;4095;48.942;9.104;2023-09-18T03:01:07;21.70;99.90
8105;DHT22;4095;48.942;9.104;2023-09-18T03:03:33;21.70;99.90
8105;DHT22;4095;48.942;9.104;2023-09-18T03:06:03;21.60;99.90
8105;DHT22;4095;48.942;9.104;2023-09-18T03:08:29;21.60;99.90
8105;DHT22;4095;48.942;9.104;2023-09-18T03:10:54;21.60;99.90
8105;DHT22;4095;48.942;9.104;2023-09-18T03:13:21;21.60;99.90
8105;DHT22;4095;48.942;9.104;2023-09-18T03:15:47;21.60;99.90
8105;DHT22;4095;48.942;9.104;2023-09-18T03:18:13;21.60;99.90
8105;DHT22;4095;48.942;9.104;2023-09-18T03:20:39;21.60;99.90
8105;DHT22;4095;48.942;9.104;2023-09-18T03:23:04;21.60;99.90
8105;DHT22;4095;48.942;9.104;2023-09-18T03:25:30;21.60;99.90
8105;DHT22;4095;48.942;9.104;2023-09-18T03:27:57;21.60;99.90
8105;DHT22;4095;48.942;9.104;2023-09-18T03:30:23;21.60;99.90
8105;DHT22;4095;48.942;9.104;2023-09-18T03:32:50;21.60;99.90
8105;DHT22;4095;48.942;9.104;2023-09-18T03:35:17;21.60;99.90
8105;DHT22;4095;48.942;9.104;2023-09-18T03:37:47;21.60;99.90
8105;DHT22;4095;48.942;9.104;2023-09-18T03:40:13;21.60;99.90
8105;DHT22;4095;48.942;9.104;2023-09-18T03:42:39;21.60;99.90
8105;DHT22;4095;48.942;9.104;2023-09-18T03:45:06;21.60;99.90
8105;DHT22;4095;48.942;9.104;2023-09-18T03:47:33;21.60;99.90
8105;DHT22;4095;48.942;9.104;2023-09-18T03:49:59;21.60;99.90
8105;DHT22;4095;48.942;9.104;2023-09-18T03:52:24;21.60;99.90
8105;DHT22;4095;48.942;9.104;2023-09-18T03:54:50;21.60;99.90
8105;DHT22;4095;48.942;9.104;2023-09-18T03:57:16;21.60;99.90
8105;DHT22;4095;48.942;9.104;2023-09-18T03:59:42;21.70;99.90
8105;DHT22;4095;48.942;9.104;2023-09-18T04:02:07;21.70;99.90
8105;DHT22;4095;48.942;9.104;2023-09-18T04:04:33;21.70;99.90
8105;DHT22;4095;48.942;9.104;2023-09-18T04:06:58;21.70;99.90
8105;DHT22;4095;48.942;9.104;2023-09-18T04:09:24;21.70;99.90
8105;DHT22;4095;48.942;9.104;2023-09-18T04:11:50;21.70;99.90
8105;DHT22;4095;48.942;9.104;2023-09-18T04:14:15;21.70;99.90
8105;DHT22;4095;48.942;9.104;2023-09-18T04:16:41;21.70;99.90
8105;DHT22;4095;48.942;9.104;2023-09-18T04:19:08;21.70;99.90
8105;DHT22;4095;48.942;9.104;2023-09-18T04:21:35;21.70;99.90
8105;DHT22;4095;48.942;9.104;2023-09-18T04:24:01;21.70;99.90
8105;DHT22;4095;48.942;9.104;2023-09-18T04:26:27;21.70;99.90
8105;DHT22;4095;48.942;9.104;2023-09-18T04:29:00;21.60;99.90
8105;DHT22;4095;48.942;9.104;2023-09-18T04:31:26;21.70;99.90
8105;DHT22;4095;48.942;9.104;2023-09-18T04:33:52;21.60;99.90
8105;DHT22;4095;48.942;9.104;2023-09-18T04:36:18;21.60;99.90
8105;DHT22;4095;48.942;9.104;2023-09-18T04:38:44;21.60;99.90
8105;DHT22;4095;48.942;9.104;2023-09-18T04:41:09;21.60;99.90
8105;DHT22;4095;48.942;9.104;2023-09-18T04:43:37;21.60;99.90
8105;DHT22;4095;48.942;9.104;2023-09-18T04:46:03;21.60;99.90
8105;DHT22;4095;48.942;9.104;2023-09-18T04:48:30;21.60;99.90
8105;DHT22;4095;48.942;9.104;2023-09-18T04:51:00;21.60;99.90
8105;DHT22;4095;48.942;9.104;2023-09-18T04:53:29;21.60;99.90
8105;DHT22;4095;48.942;9.104;2023-09-18T04:55:55;21.50;99.90
8105;DHT22;4095;48.942;9.104;2023-09-18T04:58:20;21.50;99.90
8105;DHT22;4095;48.942;9.104;2023-09-18T05:00:52;21.50;99.90
8105;DHT22;4095;48.942;9.104;2023-09-18T05:03:18;21.60;99.90
8105;DHT22;4095;48.942;9.104;2023-09-18T05:05:43;21.50;99.90
8105;DHT22;4095;48.942;9.104;2023-09-18T05:08:09;21.50;99.90
8105;DHT22;4095;48.942;9.104;2023-09-18T05:10:35;21.50;99.90
8105;DHT22;4095;48.942;9.104;2023-09-18T05:13:01;21.50;99.90
8105;DHT22;4095;48.942;9.104;2023-09-18T05:15:28;21.50;99.90
8105;DHT22;4095;48.942;9.104;2023-09-18T05:17:58;21.40;99.90
8105;DHT22;4095;48.942;9.104;2023-09-18T05:20:26;21.40;99.90
8105;DHT22;4095;48.942;9.104;2023-09-18T05:22:54;21.40;99.90
8105;DHT22;4095;48.942;9.104;2023-09-18T05:25:24;21.40;99.90
8105;DHT22;4095;48.942;9.104;2023-09-18T05:27:51;21.40;99.90
8105;DHT22;4095;48.942;9.104;2023-09-18T05:30:26;21.50;99.90
8105;DHT22;4095;48.942;9.104;2023-09-18T05:32:57;21.50;99.90
8105;DHT22;4095;48.942;9.104;2023-09-18T05:35:30;21.50;99.90
8105;DHT22;4095;48.942;9.104;2023-09-18T05:37:55;21.60;99.90
8105;DHT22;4095;48.942;9.104;2023-09-18T05:40:22;21.60;99.90
8105;DHT22;4095;48.942;9.104;2023-09-18T05:42:48;21.60;99.90
8105;DHT22;4095;48.942;9.104;2023-09-18T05:45:14;21.70;99.90
8105;DHT22;4095;48.942;9.104;2023-09-18T05:47:42;21.70;99.90
8105;DHT22;4095;48.942;9.104;2023-09-18T05:50:09;21.70;99.90
8105;DHT22;4095;48.942;9.104;2023-09-18T05:52:35;21.70;99.90
8105;DHT22;4095;48.942;9.104;2023-09-18T05:55:04;21.60;99.90
8105;DHT22;4095;48.942;9.104;2023-09-18T05:57:30;21.60;99.90
8105;DHT22;4095;48.942;9.104;2023-09-18T05:59:56;21.60;99.90
8105;DHT22;4095;48.942;9.104;2023-09-18T06:02:22;21.60;99.90
8105;DHT22;4095;48.942;9.104;2023-09-18T06:04:48;21.70;99.90
8105;DHT22;4095;48.942;9.104;2023-09-18T06:07:14;21.70;99.90
8105;DHT22;4095;48.942;9.104;2023-09-18T06:09:40;21.80;99.90
8105;DHT22;4095;48.942;9.104;2023-09-18T06:12:06;21.80;99.90
8105;DHT22;4095;48.942;9.104;2023-09-18T06:14:32;21.90;99.90
8105;DHT22;4095;48.942;9.104;2023-09-18T06:17:00;21.90;99.90
8105;DHT22;4095;48.942;9.104;2023-09-18T06:19:26;22.00;99.90
8105;DHT22;4095;48.942;9.104;2023-09-18T06:21:52;22.00;99.90
8105;DHT22;4095;48.942;9.104;2023-09-18T06:24:17;22.00;99.90
8105;DHT22;4095;48.942;9.104;2023-09-18T06:26:43;22.00;99.90
8105;DHT22;4095;48.942;9.104;2023-09-18T06:29:08;22.10;99.90
8105;DHT22;4095;48.942;9.104;2023-09-18T06:31:35;22.10;99.90
8105;DHT22;4095;48.942;9.104;2023-09-18T06:34:00;22.20;99.90
8105;DHT22;4095;48.942;9.104;2023-09-18T06:36:26;22.10;99.90
8105;DHT22;4095;48.942;9.104;2023-09-18T06:38:51;22.20;99.90
8105;DHT22;4095;48.942;9.104;2023-09-18T06:41:17;22.20;99.90
8105;DHT22;4095;48.942;9.104;2023-09-18T06:43:43;22.20;99.90
8105;DHT22;4095;48.942;9.104;2023-09-18T06:46:08;22.20;99.90
8105;DHT22;4095;48.942;9.104;2023-09-18T06:48:34;22.30;99.90
8105;DHT22;4095;48.942;9.104;2023-09-18T06:51:00;22.30;99.90
8105;DHT22;4095;48.942;9.104;2023-09-18T06:53:26;22.30;99.90
8105;DHT22;4095;48.942;9.104;2023-09-18T06:55:53;22.30;99.90
8105;DHT22;4095;48.942;9.104;2023-09-18T06:58:19;22.40;99.90
8105;DHT22;4095;48.942;9.104;2023-09-18T07:00:44;22.30;99.90
8105;DHT22;4095;48.942;9.104;2023-09-18T07:03:10;22.40;99.90
8105;DHT22;4095;48.942;9.104;2023-09-18T07:05:37;22.40;99.90
8105;DHT22;4095;48.942;9.104;2023-09-18T07:08:03;22.50;99.90
8105;DHT22;4095;48.942;9.104;2023-09-18T07:10:30;22.40;99.90
8105;DHT22;4095;48.942;9.104;2023-09-18T07:12:56;22.50;99.90
8105;DHT22;4095;48.942;9.104;2023-09-18T07:15:22;22.50;99.90
8105;DHT22;4095;48.942;9.104;2023-09-18T07:17:47;22.50;99.90
8105;DHT22;4095;48.942;9.104;2023-09-18T07:20:13;22.50;99.90
8105;DHT22;4095;48.942;9.104;2023-09-18T07:22:40;22.50;99.90
8105;DHT22;4095;48.942;9.104;2023-09-18T07:25:07;22.50;99.90
8105;DHT22;4095;48.942;9.104;2023-09-18T07:27:33;22.50;99.90
8105;DHT22;4095;48.942;9.104;2023-09-18T07:29:58;22.60;99.90
8105;DHT22;4095;48.942;9.104;2023-09-18T07:32:25;22.50;99.90
8105;DHT22;4095;48.942;9.104;2023-09-18T07:34:53;22.50;99.90
8105;DHT22;4095;48.942;9.104;2023-09-18T07:37:19;22.60;99.90
8105;DHT22;4095;48.942;9.104;2023-09-18T07:39:46;22.50;99.90
8105;DHT22;4095;48.942;9.104;2023-09-18T07:42:12;22.60;99.90
8105;DHT22;4095;48.942;9.104;2023-09-18T07:44:37;22.60;99.90
8105;DHT22;4095;48.942;9.104;2023-09-18T07:47:03;22.70;99.90
8105;DHT22;4095;48.942;9.104;2023-09-18T07:49:29;22.70;99.90
8105;DHT22;4095;48.942;9.104;2023-09-18T07:51:55;22.70;99.90
8105;DHT22;4095;48.942;9.104;2023-09-18T07:54:20;22.60;99.90
8105;DHT22;4095;48.942;9.104;2023-09-18T07:56:46;22.70;99.90
8105;DHT22;4095;48.942;9.104;2023-09-18T07:59:11;22.70;99.90
8105;DHT22;4095;48.942;9.104;2023-09-18T08:01:40;22.70;99.90
8105;DHT22;4095;48.942;9.104;2023-09-18T08:04:06;22.80;99.90
8105;DHT22;4095;48.942;9.104;2023-09-18T08:06:31;22.80;99.90
8105;DHT22;4095;48.942;9.104;2023-09-18T08:08:57;22.80;99.90
8105;DHT22;4095;48.942;9.104;2023-09-18T08:11:23;22.90;99.90
8105;DHT22;4095;48.942;9.104;2023-09-18T08:13:48;22.90;99.90
8105;DHT22;4095;48.942;9.104;2023-09-18T08:16:14;23.00;99.90
8105;DHT22;4095;48.942;9.104;2023-09-18T08:18:40;23.00;99.90
8105;DHT22;4095;48.942;9.104;2023-09-18T08:21:07;23.00;99.90
8105;DHT22;4095;48.942;9.104;2023-09-18T08:23:35;23.10;99.90
8105;DHT22;4095;48.942;9.104;2023-09-18T08:26:01;23.20;99.90
8105;DHT22;4095;48.942;9.104;2023-09-18T08:28:29;23.20;99.90
8105;DHT22;4095;48.942;9.104;2023-09-18T08:30:55;23.20;99.90
8105;DHT22;4095;48.942;9.104;2023-09-18T08:33:21;23.10;99.90
8105;DHT22;4095;48.942;9.104;2023-09-18T08:35:46;23.10;99.90
8105;DHT22;4095;48.942;9.104;2023-09-18T08:38:14;23.10;99.90
8105;DHT22;4095;48.942;9.104;2023-09-18T08:40:41;23.20;99.90
8105;DHT22;4095;48.942;9.104;2023-09-18T08:43:08;23.20;99.90
8105;DHT22;4095;48.942;9.104;2023-09-18T08:45:40;23.30;99.90
8105;DHT22;4095;48.942;9.104;2023-09-18T08:48:09;23.30;99.90
8105;DHT22;4095;48.942;9.104;2023-09-18T08:50:36;23.30;99.90
8105;DHT22;4095;48.942;9.104;2023-09-18T08:53:03;23.30;99.90
8105;DHT22;4095;48.942;9.104;2023-09-18T08:55:29;23.30;99.90
8105;DHT22;4095;48.942;9.104;2023-09-18T08:57:56;23.30;99.90
8105;DHT22;4095;48.942;9.104;2023-09-18T09:00:23;23.30;99.90
8105;DHT22;4095;48.942;9.104;2023-09-18T09:02:49;23.30;99.90
8105;DHT22;4095;48.942;9.104;2023-09-18T09:05:16;23.10;99.90
8105;DHT22;4095;48.942;9.104;2023-09-18T09:07:42;22.90;99.90
8105;DHT22;4095;48.942;9.104;2023-09-18T09:10:08;22.80;99.90
8105;DHT22;4095;48.942;9.104;2023-09-18T09:12:50;22.70;99.90
8105;DHT22;4095;48.942;9.104;2023-09-18T09:15:16;22.70;99.90
8105;DHT22;4095;48.942;9.104;2023-09-18T09:17:43;22.60;99.90
8105;DHT22;4095;48.942;9.104;2023-09-18T09:20:14;22.50;99.90
8105;DHT22;4095;48.942;9.104;2023-09-18T09:22:41;22.30;99.90
8105;DHT22;4095;48.942;9.104;2023-09-18T09:25:28;22.20;99.90
8105;DHT22;4095;48.942;9.104;2023-09-18T09:28:00;22.10;99.90
8105;DHT22;4095;48.942;9.104;2023-09-18T09:30:28;22.00;99.90
8105;DHT22;4095;48.942;9.104;2023-09-18T09:32:58;21.80;99.90
8105;DHT22;4095;48.942;9.104;2023-09-18T09:37:53;21.60;99.90
8105;DHT22;4095;48.942;9.104;2023-09-18T09:40:22;21.50;99.90
8105;DHT22;4095;48.942;9.104;2023-09-18T09:42:51;21.50;99.90
8105;DHT22;4095;48.942;9.104;2023-09-18T09:45:19;21.50;99.90
8105;DHT22;4095;48.942;9.104;2023-09-18T09:47:45;21.40;99.90
8105;DHT22;4095;48.942;9.104;2023-09-18T09:50:15;21.50;99.90
8105;DHT22;4095;48.942;9.104;2023-09-18T09:52:46;21.60;99.90
8105;DHT22;4095;48.942;9.104;2023-09-18T09:57:48;21.70;99.90
8105;DHT22;4095;48.942;9.104;2023-09-18T10:00:14;21.90;99.90
8105;DHT22;4095;48.942;9.104;2023-09-18T10:02:59;21.90;99.90
8105;DHT22;4095;48.942;9.104;2023-09-18T10:05:28;22.00;99.90
8105;DHT22;4095;48.942;9.104;2023-09-18T10:07:57;22.20;99.90
8105;DHT22;4095;48.942;9.104;2023-09-18T10:10:31;22.30;99.90
8105;DHT22;4095;48.942;9.104;2023-09-18T10:13:12;22.40;99.90
8105;DHT22;4095;48.942;9.104;2023-09-18T10:15:40;22.50;99.90
8105;DHT22;4095;48.942;9.104;2023-09-18T10:18:17;22.50;99.90
8105;DHT22;4095;48.942;9.104;2023-09-18T10:20:51;22.40;99.90
8105;DHT22;4095;48.942;9.104;2023-09-18T10:23:25;22.30;99.90
8105;DHT22;4095;48.942;9.104;2023-09-18T10:25:55;22.20;99.90
8105;DHT22;4095;48.942;9.104;2023-09-18T10:28:24;22.10;99.90
8105;DHT22;4095;48.942;9.104;2023-09-18T10:30:56;22.10;99.90
8105;DHT22;4095;48.942;9.104;2023-09-18T10:33:22;22.00;99.90
8105;DHT22;4095;48.942;9.104;2023-09-18T10:35:48;21.90;99.90
8105;DHT22;4095;48.942;9.104;2023-09-18T10:38:15;21.80;99.90
8105;DHT22;4095;48.942;9.104;2023-09-18T10:40:43;21.80;99.90
8105;DHT22;4095;48.942;9.104;2023-09-18T10:43:11;21.70;99.90
8105;DHT22;4095;48.942;9.104;2023-09-18T10:45:37;21.60;99.90
8105;DHT22;4095;48.942;9.104;2023-09-18T10:48:05;21.60;99.90
8105;DHT22;4095;48.942;9.104;2023-09-18T10:50:33;21.60;99.90
8105;DHT22;4095;48.942;9.104;2023-09-18T10:53:00;21.60;99.90
8105;DHT22;4095;48.942;9.104;2023-09-18T10:55:26;21.60;99.90
8105;DHT22;4095;48.942;9.104;2023-09-18T10:57:54;21.60;99.90
8105;DHT22;4095;48.942;9.104;2023-09-18T11:00:21;21.70;99.90
8105;DHT22;4095;48.942;9.104;2023-09-18T11:03:16;21.60;99.90
8105;DHT22;4095;48.942;9.104;2023-09-18T11:05:45;21.70;99.90
8105;DHT22;4095;48.942;9.104;2023-09-18T11:08:27;21.60;99.90
8105;DHT22;4095;48.942;9.104;2023-09-18T11:11:02;21.70;99.90
8105;DHT22;4095;48.942;9.104;2023-09-18T11:13:36;21.70;99.90
8105;DHT22;4095;48.942;9.104;2023-09-18T11:16:17;21.70;99.90
8105;DHT22;4095;48.942;9.104;2023-09-18T11:19:19;21.70;99.90
8105;DHT22;4095;48.942;9.104;2023-09-18T11:21:39;21.70;99.90
8105;DHT22;4095;48.942;9.104;2023-09-18T11:24:15;21.70;99.90
8105;DHT22;4095;48.942;9.104;2023-09-18T11:26:43;21.80;99.90
8105;DHT22;4095;48.942;9.104;2023-09-18T11:29:14;21.80;99.90
8105;DHT22;4095;48.942;9.104;2023-09-18T11:31:45;21.90;99.90
8105;DHT22;4095;48.942;9.104;2023-09-18T11:34:21;22.00;99.90
8105;DHT22;4095;48.942;9.104;2023-09-18T11:36:48;22.00;99.90
8105;DHT22;4095;48.942;9.104;2023-09-18T11:39:35;22.10;99.90
8105;DHT22;4095;48.942;9.104;2023-09-18T11:42:08;22.10;99.90
8105;DHT22;4095;48.942;9.104;2023-09-18T11:44:34;22.10;99.90
8105;DHT22;4095;48.942;9.104;2023-09-18T11:47:02;22.10;99.90
8105;DHT22;4095;48.942;9.104;2023-09-18T11:49:30;22.20;99.90
8105;DHT22;4095;48.942;9.104;2023-09-18T11:52:01;22.30;99.90
8105;DHT22;4095;48.942;9.104;2023-09-18T11:54:31;22.20;99.90
8105;DHT22;4095;48.942;9.104;2023-09-18T11:57:03;22.30;99.90
8105;DHT22;4095;48.942;9.104;2023-09-18T11:59:43;22.20;99.90
8105;DHT22;4095;48.942;9.104;2023-09-18T12:02:28;22.20;99.90
8105;DHT22;4095;48.942;9.104;2023-09-18T12:05:13;22.20;99.90
8105;DHT22;4095;48.942;9.104;2023-09-18T12:07:40;22.30;99.90
8105;DHT22;4095;48.942;9.104;2023-09-18T12:10:10;22.30;99.90
8105;DHT22;4095;48.942;9.104;2023-09-18T12:12:36;22.30;99.90
8105;DHT22;4095;48.942;9.104;2023-09-18T12:15:02;22.30;99.90
8105;DHT22;4095;48.942;9.104;2023-09-18T12:17:29;22.30;99.90
8105;DHT22;4095;48.942;9.104;2023-09-18T12:19:54;22.30;99.90
8105;DHT22;4095;48.942;9.104;2023-09-18T12:22:27;22.30;99.90
8105;DHT22;4095;48.942;9.104;2023-09-18T12:24:57;22.30;99.90
8105;DHT22;4095;48.942;9.104;2023-09-18T12:27:35;22.30;99.90
8105;DHT22;4095;48.942;9.104;2023-09-18T12:30:02;22.30;99.90
8105;DHT22;4095;48.942;9.104;2023-09-18T12:32:30;22.30;99.90
8105;DHT22;4095;48.942;9.104;2023-09-18T12:34:56;22.30;99.90
8105;DHT22;4095;48.942;9.104;2023-09-18T12:37:21;22.30;99.90
8105;DHT22;4095;48.942;9.104;2023-09-18T12:39:48;22.40;99.90
8105;DHT22;4095;48.942;9.104;2023-09-18T12:42:18;22.50;99.90
8105;DHT22;4095;48.942;9.104;2023-09-18T12:44:46;22.60;99.90
8105;DHT22;4095;48.942;9.104;2023-09-18T12:47:12;22.70;99.90
8105;DHT22;4095;48.942;9.104;2023-09-18T12:49:38;22.80;99.90
8105;DHT22;4095;48.942;9.104;2023-09-18T12:52:05;22.90;99.90
8105;DHT22;4095;48.942;9.104;2023-09-18T12:54:45;23.00;99.90
8105;DHT22;4095;48.942;9.104;2023-09-18T12:57:14;23.20;99.90
8105;DHT22;4095;48.942;9.104;2023-09-18T12:59:40;23.50;99.90
8105;DHT22;4095;48.942;9.104;2023-09-18T13:02:06;23.80;99.90
8105;DHT22;4095;48.942;9.104;2023-09-18T13:04:33;23.90;99.90
8105;DHT22;4095;48.942;9.104;2023-09-18T13:07:12;23.80;99.90
8105;DHT22;4095;48.942;9.104;2023-09-18T13:09:39;23.80;99.90
8105;DHT22;4095;48.942;9.104;2023-09-18T13:12:05;23.70;99.90
8105;DHT22;4095;48.942;9.104;2023-09-18T13:15:00;23.70;99.90
8105;DHT22;4095;48.942;9.104;2023-09-18T13:17:37;23.70;99.90
8105;DHT22;4095;48.942;9.104;2023-09-18T13:20:36;23.70;99.90
8105;DHT22;4095;48.942;9.104;2023-09-18T13:23:01;23.60;99.90
8105;DHT22;4095;48.942;9.104;2023-09-18T13:25:34;23.70;99.90
8105;DHT22;4095;48.942;9.104;2023-09-18T13:28:03;23.80;99.90
8105;DHT22;4095;48.942;9.104;2023-09-18T13:30:30;23.80;99.90
8105;DHT22;4095;48.942;9.104;2023-09-18T13:33:09;23.90;99.90
8105;DHT22;4095;48.942;9.104;2023-09-18T13:35:36;23.90;99.90
8105;DHT22;4095;48.942;9.104;2023-09-18T13:38:03;24.00;99.90
8105;DHT22;4095;48.942;9.104;2023-09-18T13:40:37;24.00;99.90
8105;DHT22;4095;48.942;9.104;2023-09-18T13:43:04;23.90;99.90
8105;DHT22;4095;48.942;9.104;2023-09-18T13:45:33;23.90;99.90
8105;DHT22;4095;48.942;9.104;2023-09-18T13:48:01;24.00;99.90
8105;DHT22;4095;48.942;9.104;2023-09-18T13:50:27;24.00;99.90
8105;DHT22;4095;48.942;9.104;2023-09-18T13:52:53;24.10;99.90
8105;DHT22;4095;48.942;9.104;2023-09-18T13:55:19;24.10;99.90
8105;DHT22;4095;48.942;9.104;2023-09-18T13:57:45;24.00;99.90
8105;DHT22;4095;48.942;9.104;2023-09-18T14:00:11;24.00;99.90
8105;DHT22;4095;48.942;9.104;2023-09-18T14:02:41;24.00;99.90
8105;DHT22;4095;48.942;9.104;2023-09-18T14:05:07;24.10;99.90
8105;DHT22;4095;48.942;9.104;2023-09-18T14:07:33;24.10;99.90
8105;DHT22;4095;48.942;9.104;2023-09-18T14:09:59;24.10;99.90
8105;DHT22;4095;48.942;9.104;2023-09-18T14:12:29;24.20;99.90
8105;DHT22;4095;48.942;9.104;2023-09-18T14:14:56;24.10;99.90
8105;DHT22;4095;48.942;9.104;2023-09-18T14:17:21;24.10;99.90
8105;DHT22;4095;48.942;9.104;2023-09-18T14:19:47;24.00;99.90
8105;DHT22;4095;48.942;9.104;2023-09-18T14:22:13;23.90;99.90
8105;DHT22;4095;48.942;9.104;2023-09-18T14:24:40;23.90;99.90
8105;DHT22;4095;48.942;9.104;2023-09-18T14:27:06;23.90;99.90
8105;DHT22;4095;48.942;9.104;2023-09-18T14:29:33;24.00;99.90
8105;DHT22;4095;48.942;9.104;2023-09-18T14:32:02;24.00;99.90
8105;DHT22;4095;48.942;9.104;2023-09-18T14:34:29;24.10;99.90
8105;DHT22;4095;48.942;9.104;2023-09-18T14:36:56;24.10;99.90
8105;DHT22;4095;48.942;9.104;2023-09-18T14:39:21;24.10;99.90
8105;DHT22;4095;48.942;9.104;2023-09-18T14:41:50;24.10;99.90
8105;DHT22;4095;48.942;9.104;2023-09-18T14:44:16;24.20;99.90
8105;DHT22;4095;48.942;9.104;2023-09-18T14:46:41;24.30;99.90
8105;DHT22;4095;48.942;9.104;2023-09-18T14:49:08;24.40;99.90
8105;DHT22;4095;48.942;9.104;2023-09-18T14:51:35;24.40;99.90
8105;DHT22;4095;48.942;9.104;2023-09-18T14:54:01;24.50;99.90
8105;DHT22;4095;48.942;9.104;2023-09-18T14:56:27;24.60;99.90
8105;DHT22;4095;48.942;9.104;2023-09-18T14:58:53;24.50;99.90
8105;DHT22;4095;48.942;9.104;2023-09-18T15:01:23;24.60;99.90
8105;DHT22;4095;48.942;9.104;2023-09-18T15:03:49;24.50;99.90
8105;DHT22;4095;48.942;9.104;2023-09-18T15:06:16;24.40;99.90
8105;DHT22;4095;48.942;9.104;2023-09-18T15:08:41;24.40;99.90
8105;DHT22;4095;48.942;9.104;2023-09-18T15:11:07;24.50;99.90
8105;DHT22;4095;48.942;9.104;2023-09-18T15:13:33;24.40;99.90
8105;DHT22;4095;48.942;9.104;2023-09-18T15:16:00;24.40;99.90
8105;DHT22;4095;48.942;9.104;2023-09-18T15:18:26;24.30;99.90
8105;DHT22;4095;48.942;9.104;2023-09-18T15:20:52;24.20;99.90
8105;DHT22;4095;48.942;9.104;2023-09-18T15:23:26;24.20;99.90
8105;DHT22;4095;48.942;9.104;2023-09-18T15:25:52;24.20;99.90
8105;DHT22;4095;48.942;9.104;2023-09-18T15:28:21;24.20;99.90
8105;DHT22;4095;48.942;9.104;2023-09-18T15:30:49;24.20;99.90
8105;DHT22;4095;48.942;9.104;2023-09-18T15:33:15;24.20;99.90
8105;DHT22;4095;48.942;9.104;2023-09-18T15:35:45;24.20;99.90
8105;DHT22;4095;48.942;9.104;2023-09-18T15:38:11;24.20;99.90
8105;DHT22;4095;48.942;9.104;2023-09-18T15:40:37;24.30;99.90
8105;DHT22;4095;48.942;9.104;2023-09-18T15:43:04;24.30;99.90
8105;DHT22;4095;48.942;9.104;2023-09-18T15:45:30;24.30;99.90
8105;DHT22;4095;48.942;9.104;2023-09-18T15:47:56;24.30;99.90
8105;DHT22;4095;48.942;9.104;2023-09-18T15:50:22;24.20;99.90
8105;DHT22;4095;48.942;9.104;2023-09-18T15:52:49;24.20;99.90
8105;DHT22;4095;48.942;9.104;2023-09-18T15:55:14;24.10;99.90
8105;DHT22;4095;48.942;9.104;2023-09-18T15:57:40;24.10;99.90
8105;DHT22;4095;48.942;9.104;2023-09-18T16:00:09;24.10;99.90
8105;DHT22;4095;48.942;9.104;2023-09-18T16:02:36;24.00;99.90
8105;DHT22;4095;48.942;9.104;2023-09-18T16:05:02;23.90;99.90
8105;DHT22;4095;48.942;9.104;2023-09-18T16:07:35;23.90;99.90
8105;DHT22;4095;48.942;9.104;2023-09-18T16:10:02;23.80;99.90